x

Dunkirk, Ny (dbln6) Weather Station

8:00am - Thu 25th May 2017 All times are CDT. -5 hours from GMT.

  • Wind
    8mph, 9mph gusts
  • Air Temp 54°f
  • Sea Pressure 999.7mb
  • Dunkirk, Ny
  • Dunkirk, Ny

More Historic Weather Station data

Upgrade to MSW Pro to gain access to the past 30 days of data for over 8000 Wavebouys and Weather Stations around the globe.

Join Pro

Comparision Forecast

View Surf forecast
   
Thu 05/25 8:00am 8 9 mph 999.7mb 54f
7:00am 10 11 mph 999.6mb 55f
6:00am 6 7 mph 999.8mb 56f
5:00am 6 9 mph 999.8mb 58f
4:00am 9 14 mph 1000.1mb 58f
3:00am 8 10 mph 1000.7mb 58f
2:00am 8 13 mph 1001.1mb 62f
1:00am 6 8 mph 1001.7mb 62f
12:00am 5 8 mph 1001.9mb 62f
Wed 05/24 11:00pm 5 7 mph 1002.2mb 62f
10:00pm 7 9 mph 1002.2mb 67f
9:00pm 6 9 mph 1002.3mb 67f
8:00pm 10 10 mph 1002mb 60f
7:00pm 9 9 mph 1002.1mb 64f
6:00pm 7 7 mph 1002.1mb 61f
5:00pm  -  1 mph 1002.7mb 65f
4:00pm 8 9 mph 1002.6mb 61f
3:00pm 9 10 mph 1002.8mb 60f
2:00pm 13 13 mph 1002.9mb 61f
1:00pm 8 9 mph 1003.3mb 58f
12:00pm 15 16 mph 1003.4mb 59f
11:00am 14 15 mph 1003.9mb 59f
10:00am 8 9 mph 1004.9mb 59f
9:00am 10 11 mph 1004.9mb 60f
8:00am  -  2 mph 1005.4mb 56f
7:00am 2 3 mph 1005.3mb 60f
6:00am 6 7 mph 1005mb 57f
5:00am 6 8 mph 1005.4mb 58f
4:00am  -  1 mph 1005.2mb 56f
3:00am  -  2 mph 1005.5mb 61f
2:00am 2 3 mph 1006.2mb 61f
1:00am 8 13 mph 1005.5mb 61f
12:00am 7 10 mph 1006.2mb 62f
Tue 05/23 11:00pm 6 7 mph 1006.7mb 62f
10:00pm 2 6 mph 1007.3mb 61f
9:00pm 2 2 mph 1007.7mb 64f
8:00pm 3 3 mph 1007.6mb 65f
7:00pm 7 8 mph 1007.6mb 65f
6:00pm 9 10 mph 1007.7mb 63f
5:00pm 9 9 mph 1008.4mb 60f
4:00pm 6 7 mph 1008.9mb 58f
3:00pm 5 6 mph 1009.9mb 58f
2:00pm 6 6 mph 1010.6mb 58f
1:00pm 14 14 mph 1011mb 59f
12:00pm 8 8 mph 1012.2mb 62f
11:00am 7 8 mph 1012.7mb 63f
10:00am 6 8 mph 1013.4mb 65f
9:00am 10 13 mph 1013.6mb 63f
8:00am 5 7 mph 1013.7mb 63f
7:00am 8 10 mph 1013.6mb 57f
6:00am 8 9 mph 1013.8mb 55f
5:00am 8 9 mph 1014mb 53f
4:00am 9 11 mph 1014mb 54f
3:00am 9 11 mph 1014.3mb 54f
2:00am 9 11 mph 1014.5mb 55f
1:00am 9 13 mph 1015.1mb 55f
12:00am 7 11 mph 1015.3mb 56f
Mon 05/22 11:00pm 7 11 mph 1015.8mb 57f
10:00pm 7 13 mph 1016.1mb 58f
9:00pm 8 11 mph 1016.1mb 58f
8:00pm 13 15 mph 1015.9mb 57f
7:00pm 15 18 mph 1016mb 56f
6:00pm 14 17 mph 1016mb 54f
5:00pm 17 21 mph 1016.1mb 54f
4:00pm 18 21 mph 1015.9mb 54f
3:00pm 18 21 mph 1016.2mb 54f
2:00pm 25 29 mph 1015.7mb 53f
1:00pm 28 34 mph 1015.5mb 54f
12:00pm 25 30 mph 1015.9mb 53f
11:00am 23 30 mph 1015.9mb 53f
10:00am 24 28 mph 1015.6mb 53f
9:00am 22 28 mph 1014.9mb 55f
8:00am 22 26 mph 1014.5mb 56f
7:00am 18 23 mph 1014.4mb 56f
6:00am 16 18 mph 1013.9mb 56f
5:00am 16 20 mph 1013.8mb 58f
4:00am 7 10 mph 1013.7mb 61f
3:00am 7 10 mph 1014mb 61f
2:00am 13 17 mph 1013.6mb 60f
1:00am 13 22 mph 1013.7mb 59f
12:00am 8 13 mph 1013.7mb 60f
Sun 05/21 11:00pm 11 21 mph 1013.9mb 60f
10:00pm 17 25 mph 1014mb 60f
9:00pm 16 23 mph 1014.3mb 59f
8:00pm 14 24 mph 1014.5mb 59f
7:00pm 18 32 mph 1014.7mb 59f
6:00pm 17 26 mph 1014.4mb 61f
5:00pm 15 24 mph 1015.1mb 62f
4:00pm 11 20 mph 1015.4mb 64f
3:00pm 8 15 mph 1015.7mb 69f